PWSweather.com
Personal Weather Stations
Station Observations
SHAHALMS1
Eftra, Falkenberg, HA

EftraFalkenberg, HA

Lat: 56.85, Lon: 12.65

Elevation: 140

Station Type:

http://hem.passagen.se/risarp101

High Low Average
Temperature 62.2°F16.8°C 54.1°F12.3°C 57.1°F13.9°C
Dew Point 53.0°F11.7°C 41.8°F5.4°C 47.9°F8.8°C
Winds 9.8 mph 15.8 kmh 1.6 mph 2.6 kmh 5.0 mph W8.0 kmh W
Wind Gusts 26.5 mph42.6 kmh 6.8 mph10.9 kmh 14.0 mph22.5 kmh
Humidity 86% 59% 72%
Pressure 30.07 in1018.3 mb 29.77 in1008.1 mb -
Precipitation 0.18 in4.6 mm - -
Hour Temp Dew Point Humidity Winds Wind Gusts Pressure Precip Precip Rate Daily Precip Total
12:00 AM 56.3°F13.5°C 51.5°F10.8°C 84% 8.2 mph W13.2 kmh W 19.0 mph30.6 kmh 29.83 in1010.2 mb 0.09 in2.3 mm 0.00 in0.0 mm 0.09 in2.3 mm
12:15 AM 56.3°F13.5°C 51.8°F11.0°C 85% 8.0 mph W12.9 kmh W 17.5 mph28.2 kmh 29.80 in1009.1 mb 0.09 in2.3 mm 0.00 in0.0 mm 0.09 in2.3 mm
12:30 AM 56.5°F13.6°C 52.3°F11.3°C 86% 7.7 mph W12.4 kmh W 20.0 mph32.2 kmh 29.80 in1009.1 mb 0.05 in1.3 mm 0.00 in0.0 mm 0.14 in3.6 mm
12:45 AM 56.3°F13.5°C 52.2°F11.2°C 86% 7.5 mph W12.1 kmh W 16.5 mph26.6 kmh 29.80 in1009.1 mb 0.05 in1.3 mm 0.00 in0.0 mm 0.14 in3.6 mm
01:00 AM 55.8°F13.2°C 51.3°F10.7°C 85% 5.6 mph W9.0 kmh W 11.8 mph19.0 kmh 29.80 in1009.1 mb 0.05 in1.3 mm 0.00 in0.0 mm 0.14 in3.6 mm
01:15 AM 55.9°F13.3°C 51.5°F10.8°C 85% 6.2 mph W10.0 kmh W 14.0 mph22.5 kmh 29.80 in1009.1 mb 0.05 in1.3 mm 0.00 in0.0 mm 0.14 in3.6 mm
01:30 AM 55.9°F13.3°C 51.5°F10.8°C 85% 6.1 mph W9.8 kmh W 14.0 mph22.5 kmh 29.77 in1008.1 mb 0.00 in0.0 mm 0.00 in0.0 mm 0.14 in3.6 mm
01:45 AM 55.8°F13.2°C 51.3°F10.7°C 85% 5.0 mph W8.0 kmh W 11.8 mph19.0 kmh 29.80 in1009.1 mb 0.00 in0.0 mm 0.00 in0.0 mm 0.14 in3.6 mm
02:00 AM 55.8°F13.2°C 51.3°F10.7°C 85% 4.9 mph W7.9 kmh W 12.9 mph20.8 kmh 29.80 in1009.1 mb 0.00 in0.0 mm 0.00 in0.0 mm 0.14 in3.6 mm
02:15 AM 55.6°F13.1°C 51.1°F10.6°C 85% 5.8 mph WSW9.3 kmh WSW 10.4 mph16.7 kmh 29.80 in1009.1 mb 0.00 in0.0 mm 0.00 in0.0 mm 0.14 in3.6 mm
02:30 AM 55.6°F13.1°C 51.1°F10.6°C 85% 5.8 mph W9.3 kmh W 11.1 mph17.9 kmh 29.83 in1010.2 mb 0.00 in0.0 mm 0.00 in0.0 mm 0.14 in3.6 mm
02:45 AM 55.8°F13.2°C 51.3°F10.7°C 85% 6.3 mph W10.1 kmh W 17.5 mph28.2 kmh 29.77 in1008.1 mb 0.00 in0.0 mm 0.00 in0.0 mm 0.14 in3.6 mm
03:00 AM 55.8°F13.2°C 51.0°F10.6°C 84% 4.7 mph W7.6 kmh W 16.5 mph26.6 kmh 29.80 in1009.1 mb 0.00 in0.0 mm 0.00 in0.0 mm 0.14 in3.6 mm
03:15 AM 55.8°F13.2°C 51.0°F10.6°C 84% 4.9 mph W7.9 kmh W 15.0 mph24.1 kmh 29.80 in1009.1 mb 0.00 in0.0 mm 0.00 in0.0 mm 0.14 in3.6 mm
03:30 AM 55.9°F13.3°C 51.2°F10.7°C 84% 4.7 mph W7.6 kmh W 9.7 mph15.6 kmh 29.80 in1009.1 mb 0.00 in0.0 mm 0.00 in0.0 mm 0.14 in3.6 mm
03:45 AM 55.8°F13.2°C 51.0°F10.6°C 84% 4.3 mph W6.9 kmh W 12.5 mph20.1 kmh 29.80 in1009.1 mb 0.00 in0.0 mm 0.00 in0.0 mm 0.14 in3.6 mm
04:00 AM 55.6°F13.1°C 50.8°F10.4°C 84% 3.9 mph WSW6.3 kmh WSW 12.5 mph20.1 kmh 29.80 in1009.1 mb 0.00 in0.0 mm 0.00 in0.0 mm 0.14 in3.6 mm
04:15 AM 55.6°F13.1°C 50.5°F10.3°C 83% 3.9 mph W6.3 kmh W 12.5 mph20.1 kmh 29.80 in1009.1 mb 0.00 in0.0 mm 0.00 in0.0 mm 0.14 in3.6 mm
04:30 AM 55.4°F13.0°C 50.3°F10.2°C 83% 2.7 mph W4.3 kmh W 12.9 mph20.8 kmh 29.80 in1009.1 mb 0.00 in0.0 mm 0.00 in0.0 mm 0.14 in3.6 mm
04:45 AM 55.2°F12.9°C 50.1°F10.1°C 83% 3.6 mph W5.8 kmh W 11.1 mph17.9 kmh 29.80 in1009.1 mb 0.00 in0.0 mm 0.00 in0.0 mm 0.14 in3.6 mm
05:00 AM 55.0°F12.8°C 50.0°F10.0°C 83% 2.8 mph W4.5 kmh W 8.6 mph13.8 kmh 29.80 in1009.1 mb 0.00 in0.0 mm 0.00 in0.0 mm 0.14 in3.6 mm
05:15 AM 55.2°F12.9°C 50.1°F10.1°C 83% 3.6 mph WNW5.8 kmh WNW 10.0 mph16.1 kmh 29.80 in1009.1 mb 0.00 in0.0 mm 0.00 in0.0 mm 0.14 in3.6 mm
05:30 AM 55.4°F13.0°C 50.3°F10.2°C 83% 4.1 mph W6.6 kmh W 11.8 mph19.0 kmh 29.80 in1009.1 mb 0.00 in0.0 mm 0.00 in0.0 mm 0.14 in3.6 mm
05:45 AM 55.4°F13.0°C 50.0°F10.0°C 82% 1.6 mph WNW2.6 kmh WNW 6.8 mph10.9 kmh 29.80 in1009.1 mb 0.00 in0.0 mm 0.00 in0.0 mm 0.14 in3.6 mm
06:00 AM 55.6°F13.1°C 50.2°F10.1°C 82% 2.7 mph W4.3 kmh W 9.3 mph15.0 kmh 29.80 in1009.1 mb 0.00 in0.0 mm 0.00 in0.0 mm 0.14 in3.6 mm
06:15 AM 55.8°F13.2°C 50.3°F10.2°C 82% 3.0 mph W4.8 kmh W 7.9 mph12.7 kmh 29.80 in1009.1 mb 0.00 in0.0 mm 0.00 in0.0 mm 0.14 in3.6 mm
06:30 AM 56.1°F13.4°C 50.7°F10.4°C 82% 3.3 mph W5.3 kmh W 7.9 mph12.7 kmh 29.80 in1009.1 mb 0.00 in0.0 mm 0.00 in0.0 mm 0.14 in3.6 mm
06:45 AM 56.3°F13.5°C 50.9°F10.5°C 82% 3.5 mph W5.6 kmh W 8.9 mph14.3 kmh 29.77 in1008.1 mb 0.00 in0.0 mm 0.00 in0.0 mm 0.14 in3.6 mm
07:00 AM 56.7°F13.7°C 51.2°F10.7°C 82% 3.8 mph W6.1 kmh W 12.2 mph19.6 kmh 29.80 in1009.1 mb 0.00 in0.0 mm 0.00 in0.0 mm 0.14 in3.6 mm
07:15 AM 56.8°F13.8°C 51.1°F10.6°C 81% 3.9 mph WNW6.3 kmh WNW 8.9 mph14.3 kmh 29.80 in1009.1 mb 0.00 in0.0 mm 0.00 in0.0 mm 0.14 in3.6 mm
07:30 AM 57.0°F13.9°C 50.9°F10.5°C 80% 4.5 mph W7.2 kmh W 10.4 mph16.7 kmh 29.80 in1009.1 mb 0.00 in0.0 mm 0.00 in0.0 mm 0.14 in3.6 mm
07:45 AM 56.8°F13.8°C 50.4°F10.2°C 79% 6.6 mph WNW10.6 kmh WNW 15.7 mph25.3 kmh 29.80 in1009.1 mb 0.00 in0.0 mm 0.00 in0.0 mm 0.14 in3.6 mm
08:00 AM 56.3°F13.5°C 50.2°F10.1°C 80% 5.0 mph W8.0 kmh W 12.2 mph19.6 kmh 29.83 in1010.2 mb 0.00 in0.0 mm 0.00 in0.0 mm 0.14 in3.6 mm
08:15 AM 56.1°F13.4°C 50.4°F10.2°C 81% 4.2 mph W6.8 kmh W 10.0 mph16.1 kmh 29.83 in1010.2 mb 0.00 in0.0 mm 0.00 in0.0 mm 0.14 in3.6 mm
08:30 AM 56.1°F13.4°C 50.7°F10.4°C 82% 4.7 mph W7.6 kmh W 10.0 mph16.1 kmh 29.83 in1010.2 mb 0.00 in0.0 mm 0.00 in0.0 mm 0.14 in3.6 mm
08:45 AM 56.1°F13.4°C 51.0°F10.6°C 83% 4.0 mph W6.4 kmh W 8.9 mph14.3 kmh 29.83 in1010.2 mb 0.00 in0.0 mm 0.00 in0.0 mm 0.14 in3.6 mm
09:00 AM 57.2°F14.0°C 51.8°F11.0°C 82% 3.1 mph WNW5.0 kmh WNW 12.2 mph19.6 kmh 29.86 in1011.2 mb 0.00 in0.0 mm 0.00 in0.0 mm 0.14 in3.6 mm
09:15 AM 58.5°F14.7°C 53.0°F11.7°C 82% 4.0 mph WNW6.4 kmh WNW 9.7 mph15.6 kmh 29.86 in1011.2 mb 0.00 in0.0 mm 0.00 in0.0 mm 0.14 in3.6 mm
09:30 AM 57.7°F14.3°C 51.3°F10.7°C 79% 2.6 mph WNW4.2 kmh WNW 8.6 mph13.8 kmh 29.86 in1011.2 mb 0.00 in0.0 mm 0.00 in0.0 mm 0.14 in3.6 mm
09:45 AM 57.0°F13.9°C 50.2°F10.1°C 78% 4.0 mph W6.4 kmh W 10.0 mph16.1 kmh 29.86 in1011.2 mb 0.05 in1.3 mm 0.20 in5.1 mm 0.18 in4.6 mm
10:00 AM 56.8°F13.8°C 50.1°F10.1°C 78% 5.4 mph WNW8.7 kmh WNW 10.0 mph16.1 kmh 29.86 in1011.2 mb 0.05 in1.3 mm 0.00 in0.0 mm 0.18 in4.6 mm
10:15 AM 56.8°F13.8°C 49.4°F9.7°C 76% 6.9 mph WNW11.1 kmh WNW 16.5 mph26.6 kmh 29.89 in1012.2 mb 0.05 in1.3 mm 0.00 in0.0 mm 0.18 in4.6 mm
10:30 AM 57.7°F14.3°C 49.5°F9.7°C 74% 6.7 mph WNW10.8 kmh WNW 15.7 mph25.3 kmh 29.86 in1011.2 mb 0.05 in1.3 mm 0.00 in0.0 mm 0.18 in4.6 mm
10:45 AM 58.6°F14.8°C 48.9°F9.4°C 70% 7.6 mph WNW12.2 kmh WNW 16.5 mph26.6 kmh 29.86 in1011.2 mb 0.00 in0.0 mm 0.00 in0.0 mm 0.18 in4.6 mm
11:00 AM 59.4°F15.2°C 48.4°F9.1°C 67% 7.5 mph WNW12.1 kmh WNW 20.4 mph32.8 kmh 29.86 in1011.2 mb 0.00 in0.0 mm 0.00 in0.0 mm 0.18 in4.6 mm
11:15 AM 59.5°F15.3°C 48.2°F9.0°C 66% 6.4 mph W10.3 kmh W 15.7 mph25.3 kmh 29.89 in1012.2 mb 0.00 in0.0 mm 0.00 in0.0 mm 0.18 in4.6 mm
11:30 AM 59.7°F15.4°C 48.3°F9.1°C 66% 7.1 mph WNW11.4 kmh WNW 16.5 mph26.6 kmh 29.89 in1012.2 mb 0.00 in0.0 mm 0.00 in0.0 mm 0.18 in4.6 mm
11:45 AM 59.9°F15.5°C 47.3°F8.5°C 63% 8.4 mph W13.5 kmh W 19.0 mph30.6 kmh 29.89 in1012.2 mb 0.00 in0.0 mm 0.00 in0.0 mm 0.18 in4.6 mm
12:00 PM 60.8°F16.0°C 48.5°F9.2°C 64% 7.5 mph WNW12.1 kmh WNW 16.8 mph27.0 kmh 29.89 in1012.2 mb 0.00 in0.0 mm 0.00 in0.0 mm 0.18 in4.6 mm
12:15 PM 61.3°F16.3°C 48.6°F9.2°C 63% 7.5 mph W12.1 kmh W 16.8 mph27.0 kmh 29.89 in1012.2 mb 0.00 in0.0 mm 0.00 in0.0 mm 0.18 in4.6 mm
12:30 PM 61.5°F16.4°C 48.4°F9.1°C 62% 7.9 mph WNW12.7 kmh WNW 17.2 mph27.7 kmh 29.92 in1013.2 mb 0.00 in0.0 mm 0.00 in0.0 mm 0.18 in4.6 mm
12:45 PM 61.3°F16.3°C 47.8°F8.8°C 61% 7.9 mph WNW12.7 kmh WNW 19.7 mph31.7 kmh 29.92 in1013.2 mb 0.00 in0.0 mm 0.00 in0.0 mm 0.18 in4.6 mm
01:00 PM 61.7°F16.5°C 48.1°F8.9°C 61% 7.2 mph WNW11.6 kmh WNW 17.5 mph28.2 kmh 29.92 in1013.2 mb 0.00 in0.0 mm 0.00 in0.0 mm 0.18 in4.6 mm
01:15 PM 61.0°F16.1°C 47.0°F8.3°C 60% 9.8 mph W15.8 kmh W 23.3 mph37.5 kmh 29.95 in1014.2 mb 0.00 in0.0 mm 0.00 in0.0 mm 0.18 in4.6 mm
01:30 PM 61.7°F16.5°C 48.1°F8.9°C 61% 7.2 mph W11.6 kmh W 15.4 mph24.8 kmh 29.89 in1012.2 mb 0.00 in0.0 mm 0.00 in0.0 mm 0.18 in4.6 mm
01:45 PM 61.7°F16.5°C 48.1°F8.9°C 61% 7.3 mph WNW11.7 kmh WNW 20.8 mph33.5 kmh 29.89 in1012.2 mb 0.00 in0.0 mm 0.00 in0.0 mm 0.18 in4.6 mm
02:00 PM 61.3°F16.3°C 47.3°F8.5°C 60% 8.1 mph WNW13.0 kmh WNW 17.2 mph27.7 kmh 29.92 in1013.2 mb 0.00 in0.0 mm 0.00 in0.0 mm 0.18 in4.6 mm
02:15 PM 61.7°F16.5°C 48.1°F8.9°C 61% 8.0 mph WNW12.9 kmh WNW 20.0 mph32.2 kmh 29.92 in1013.2 mb 0.00 in0.0 mm 0.00 in0.0 mm 0.18 in4.6 mm
02:30 PM 62.1°F16.7°C 48.0°F8.9°C 60% 6.2 mph WNW10.0 kmh WNW 15.0 mph24.1 kmh 29.92 in1013.2 mb 0.00 in0.0 mm 0.00 in0.0 mm 0.18 in4.6 mm
02:45 PM 62.2°F16.8°C 48.2°F9.0°C 60% 7.3 mph W11.7 kmh W 19.0 mph30.6 kmh 29.92 in1013.2 mb 0.00 in0.0 mm 0.00 in0.0 mm 0.18 in4.6 mm
03:00 PM 61.5°F16.4°C 47.5°F8.6°C 60% 6.5 mph WNW10.5 kmh WNW 26.5 mph42.6 kmh 29.95 in1014.2 mb 0.00 in0.0 mm 0.00 in0.0 mm 0.18 in4.6 mm
03:15 PM 61.0°F16.1°C 47.0°F8.3°C 60% 7.6 mph W12.2 kmh W 16.8 mph27.0 kmh 29.95 in1014.2 mb 0.00 in0.0 mm 0.00 in0.0 mm 0.18 in4.6 mm
03:30 PM 60.8°F16.0°C 46.4°F8.0°C 59% 7.4 mph WNW11.9 kmh WNW 16.8 mph27.0 kmh 29.95 in1014.2 mb 0.00 in0.0 mm 0.00 in0.0 mm 0.18 in4.6 mm
03:45 PM 60.3°F15.7°C 45.9°F7.7°C 59% 7.4 mph W11.9 kmh W 15.7 mph25.3 kmh 29.95 in1014.2 mb 0.00 in0.0 mm 0.00 in0.0 mm 0.18 in4.6 mm
04:00 PM 59.7°F15.4°C 45.8°F7.7°C 60% 6.9 mph W11.1 kmh W 15.4 mph24.8 kmh 29.95 in1014.2 mb 0.00 in0.0 mm 0.00 in0.0 mm 0.18 in4.6 mm
04:15 PM 60.4°F15.8°C 47.4°F8.6°C 62% 5.2 mph W8.4 kmh W 11.8 mph19.0 kmh 29.95 in1014.2 mb 0.00 in0.0 mm 0.00 in0.0 mm 0.18 in4.6 mm
04:30 PM 59.5°F15.3°C 46.1°F7.8°C 61% 5.6 mph WNW9.0 kmh WNW 12.9 mph20.8 kmh 29.95 in1014.2 mb 0.00 in0.0 mm 0.00 in0.0 mm 0.18 in4.6 mm
04:45 PM 58.8°F14.9°C 45.4°F7.4°C 61% 5.4 mph WNW8.7 kmh WNW 12.9 mph20.8 kmh 29.98 in1015.2 mb 0.00 in0.0 mm 0.00 in0.0 mm 0.18 in4.6 mm
05:00 PM 58.6°F14.8°C 45.2°F7.3°C 61% 5.6 mph WNW9.0 kmh WNW 14.0 mph22.5 kmh 29.98 in1015.2 mb 0.00 in0.0 mm 0.00 in0.0 mm 0.18 in4.6 mm
05:15 PM 58.3°F14.6°C 44.9°F7.2°C 61% 5.7 mph W9.2 kmh W 14.0 mph22.5 kmh 29.98 in1015.2 mb 0.00 in0.0 mm 0.00 in0.0 mm 0.18 in4.6 mm
05:30 PM 57.7°F14.3°C 43.9°F6.6°C 60% 7.1 mph WNW11.4 kmh WNW 15.7 mph25.3 kmh 30.01 in1016.3 mb 0.00 in0.0 mm 0.00 in0.0 mm 0.18 in4.6 mm
05:45 PM 57.2°F14.0°C 43.4°F6.3°C 60% 5.9 mph W9.5 kmh W 12.9 mph20.8 kmh 29.95 in1014.2 mb 0.00 in0.0 mm 0.00 in0.0 mm 0.18 in4.6 mm
06:00 PM 56.7°F13.7°C 43.4°F6.3°C 61% 5.0 mph W8.0 kmh W 12.9 mph20.8 kmh 30.01 in1016.3 mb 0.00 in0.0 mm 0.00 in0.0 mm 0.18 in4.6 mm
06:15 PM 56.3°F13.5°C 43.0°F6.1°C 61% 5.2 mph WNW8.4 kmh WNW 15.7 mph25.3 kmh 29.95 in1014.2 mb 0.00 in0.0 mm 0.00 in0.0 mm 0.18 in4.6 mm
06:30 PM 56.1°F13.4°C 42.8°F6.0°C 61% 6.4 mph W10.3 kmh W 20.4 mph32.8 kmh 29.95 in1014.2 mb 0.00 in0.0 mm 0.00 in0.0 mm 0.18 in4.6 mm
06:45 PM 56.1°F13.4°C 43.3°F6.3°C 62% 5.0 mph WNW8.0 kmh WNW 11.8 mph19.0 kmh 29.98 in1015.2 mb 0.00 in0.0 mm 0.00 in0.0 mm 0.18 in4.6 mm
07:00 PM 55.8°F13.2°C 42.9°F6.1°C 62% 4.6 mph W7.4 kmh W 12.2 mph19.6 kmh 29.98 in1015.2 mb 0.00 in0.0 mm 0.00 in0.0 mm 0.18 in4.6 mm
07:15 PM 55.4°F13.0°C 43.0°F6.1°C 63% 4.4 mph W7.1 kmh W 10.4 mph16.7 kmh 29.98 in1015.2 mb 0.00 in0.0 mm 0.00 in0.0 mm 0.18 in4.6 mm
07:30 PM 54.9°F12.7°C 42.5°F5.8°C 63% 4.5 mph W7.2 kmh W 12.2 mph19.6 kmh 30.01 in1016.3 mb 0.00 in0.0 mm 0.00 in0.0 mm 0.18 in4.6 mm
07:45 PM 54.7°F12.6°C 42.3°F5.7°C 63% 4.5 mph W7.2 kmh W 10.0 mph16.1 kmh 30.01 in1016.3 mb 0.00 in0.0 mm 0.00 in0.0 mm 0.18 in4.6 mm
08:00 PM 54.3°F12.4°C 42.0°F5.6°C 63% 4.7 mph W7.6 kmh W 13.6 mph21.9 kmh 30.01 in1016.3 mb 0.00 in0.0 mm 0.00 in0.0 mm 0.18 in4.6 mm
08:15 PM 54.3°F12.4°C 42.0°F5.6°C 63% 6.3 mph WNW10.1 kmh WNW 12.5 mph20.1 kmh 30.01 in1016.3 mb 0.00 in0.0 mm 0.00 in0.0 mm 0.18 in4.6 mm
08:30 PM 54.1°F12.3°C 41.8°F5.4°C 63% 4.4 mph WNW7.1 kmh WNW 12.5 mph20.1 kmh 30.04 in1017.3 mb 0.00 in0.0 mm 0.00 in0.0 mm 0.18 in4.6 mm
08:45 PM 54.1°F12.3°C 42.2°F5.7°C 64% 4.9 mph W7.9 kmh W 11.5 mph18.5 kmh 30.01 in1016.3 mb 0.00 in0.0 mm 0.00 in0.0 mm 0.18 in4.6 mm
09:00 PM 54.3°F12.4°C 42.8°F6.0°C 65% 5.0 mph W8.0 kmh W 12.9 mph20.8 kmh 30.04 in1017.3 mb 0.00 in0.0 mm 0.00 in0.0 mm 0.18 in4.6 mm
09:15 PM 54.3°F12.4°C 43.2°F6.2°C 66% 5.0 mph W8.0 kmh W 11.5 mph18.5 kmh 30.04 in1017.3 mb 0.00 in0.0 mm 0.00 in0.0 mm 0.18 in4.6 mm
09:30 PM 54.5°F12.5°C 43.8°F6.6°C 67% 5.6 mph WNW9.0 kmh WNW 16.8 mph27.0 kmh 30.04 in1017.3 mb 0.00 in0.0 mm 0.00 in0.0 mm 0.18 in4.6 mm
09:45 PM 54.7°F12.6°C 44.3°F6.8°C 68% 6.2 mph W10.0 kmh W 19.7 mph31.7 kmh 30.04 in1017.3 mb 0.00 in0.0 mm 0.00 in0.0 mm 0.18 in4.6 mm
10:00 PM 54.7°F12.6°C 44.3°F6.8°C 68% 5.1 mph W8.2 kmh W 13.6 mph21.9 kmh 30.04 in1017.3 mb 0.00 in0.0 mm 0.00 in0.0 mm 0.18 in4.6 mm
10:15 PM 54.7°F12.6°C 44.3°F6.8°C 68% 4.6 mph WNW7.4 kmh WNW 9.3 mph15.0 kmh 30.07 in1018.3 mb 0.00 in0.0 mm 0.00 in0.0 mm 0.18 in4.6 mm
10:30 PM 54.5°F12.5°C 44.2°F6.8°C 68% 3.5 mph W5.6 kmh W 10.4 mph16.7 kmh 30.04 in1017.3 mb 0.00 in0.0 mm 0.00 in0.0 mm 0.18 in4.6 mm
10:45 PM 54.5°F12.5°C 44.5°F6.9°C 69% 4.5 mph W7.2 kmh W 11.5 mph18.5 kmh 30.04 in1017.3 mb 0.00 in0.0 mm 0.00 in0.0 mm 0.18 in4.6 mm
11:00 PM 54.5°F12.5°C 44.5°F6.9°C 69% 3.9 mph W6.3 kmh W 7.9 mph12.7 kmh 30.01 in1016.3 mb 0.00 in0.0 mm 0.00 in0.0 mm 0.14 in3.6 mm
11:15 PM 54.7°F12.6°C 44.7°F7.1°C 69% 3.9 mph WNW6.3 kmh WNW 10.0 mph16.1 kmh 30.01 in1016.3 mb 0.00 in0.0 mm 0.00 in0.0 mm 0.14 in3.6 mm
11:30 PM 54.5°F12.5°C 44.9°F7.2°C 70% 4.7 mph W7.6 kmh W 11.8 mph19.0 kmh 30.04 in1017.3 mb 0.00 in0.0 mm 0.00 in0.0 mm 0.14 in3.6 mm
11:45 PM 54.3°F12.4°C 44.7°F7.1°C 70% 4.0 mph W6.4 kmh W 10.7 mph17.2 kmh 30.04 in1017.3 mb 0.00 in0.0 mm 0.00 in0.0 mm 0.14 in3.6 mm